sensor_id;sensor_type;location;lat;lon;timestamp;temperature;humidity
48898;DHT22;34713;50.038;20.000;2022-11-03T00:01:56;14.07;62.86
48898;DHT22;34713;50.038;20.000;2022-11-03T00:04:22;14.07;62.90
48898;DHT22;34713;50.038;20.000;2022-11-03T00:06:53;14.02;62.86
48898;DHT22;34713;50.038;20.000;2022-11-03T00:09:21;14.02;62.89
48898;DHT22;34713;50.038;20.000;2022-11-03T00:11:49;14.00;62.90
48898;DHT22;34713;50.038;20.000;2022-11-03T00:14:16;14.00;62.92
48898;DHT22;34713;50.038;20.000;2022-11-03T00:16:42;13.96;62.96
48898;DHT22;34713;50.038;20.000;2022-11-03T00:19:09;13.93;63.05
48898;DHT22;34713;50.038;20.000;2022-11-03T00:21:36;13.93;63.03
48898;DHT22;34713;50.038;20.000;2022-11-03T00:24:03;13.91;63.04
48898;DHT22;34713;50.038;20.000;2022-11-03T00:26:31;13.90;63.08
48898;DHT22;34713;50.038;20.000;2022-11-03T00:31:37;13.89;63.21
48898;DHT22;34713;50.038;20.000;2022-11-03T00:34:04;13.91;63.21
48898;DHT22;34713;50.038;20.000;2022-11-03T00:36:34;13.91;63.22
48898;DHT22;34713;50.038;20.000;2022-11-03T00:39:01;13.91;63.25
48898;DHT22;34713;50.038;20.000;2022-11-03T00:41:27;13.91;63.24
48898;DHT22;34713;50.038;20.000;2022-11-03T00:43:54;13.93;63.25
48898;DHT22;34713;50.038;20.000;2022-11-03T00:46:21;13.90;63.26
48898;DHT22;34713;50.038;20.000;2022-11-03T00:48:47;13.87;63.25
48898;DHT22;34713;50.038;20.000;2022-11-03T00:51:17;13.84;63.28
48898;DHT22;34713;50.038;20.000;2022-11-03T00:53:46;13.84;63.27
48898;DHT22;34713;50.038;20.000;2022-11-03T00:56:16;13.83;63.31
48898;DHT22;34713;50.038;20.000;2022-11-03T00:58:42;13.77;63.30
48898;DHT22;34713;50.038;20.000;2022-11-03T01:01:16;13.76;63.30
48898;DHT22;34713;50.038;20.000;2022-11-03T01:03:45;13.76;63.31
48898;DHT22;34713;50.038;20.000;2022-11-03T01:06:13;13.72;63.30
48898;DHT22;34713;50.038;20.000;2022-11-03T01:08:58;13.67;63.29
48898;DHT22;34713;50.038;20.000;2022-11-03T01:11:23;13.67;63.30
48898;DHT22;34713;50.038;20.000;2022-11-03T01:14:14;13.64;63.28
48898;DHT22;34713;50.038;20.000;2022-11-03T01:16:41;13.63;63.29
48898;DHT22;34713;50.038;20.000;2022-11-03T01:19:07;13.59;63.32
48898;DHT22;34713;50.038;20.000;2022-11-03T01:21:34;13.56;63.37
48898;DHT22;34713;50.038;20.000;2022-11-03T01:24:04;13.52;63.34
48898;DHT22;34713;50.038;20.000;2022-11-03T01:26:30;13.54;63.37
48898;DHT22;34713;50.038;20.000;2022-11-03T01:28:58;13.50;63.36
48898;DHT22;34713;50.038;20.000;2022-11-03T01:31:25;13.50;63.41
48898;DHT22;34713;50.038;20.000;2022-11-03T01:33:53;13.49;63.45
48898;DHT22;34713;50.038;20.000;2022-11-03T01:36:20;13.49;63.48
48898;DHT22;34713;50.038;20.000;2022-11-03T01:38:46;13.46;63.46
48898;DHT22;34713;50.038;20.000;2022-11-03T01:41:16;13.46;63.45
48898;DHT22;34713;50.038;20.000;2022-11-03T01:43:43;13.42;63.50
48898;DHT22;34713;50.038;20.000;2022-11-03T01:46:24;13.40;63.45
48898;DHT22;34713;50.038;20.000;2022-11-03T01:49:03;13.36;63.48
48898;DHT22;34713;50.038;20.000;2022-11-03T01:51:29;13.31;63.48
48898;DHT22;34713;50.038;20.000;2022-11-03T01:53:59;13.31;63.48
48898;DHT22;34713;50.038;20.000;2022-11-03T01:56:29;13.26;63.47
48898;DHT22;34713;50.038;20.000;2022-11-03T01:58:56;13.23;63.55
48898;DHT22;34713;50.038;20.000;2022-11-03T02:01:22;13.21;63.52
48898;DHT22;34713;50.038;20.000;2022-11-03T02:03:52;13.15;63.60
48898;DHT22;34713;50.038;20.000;2022-11-03T02:06:21;13.11;63.59
48898;DHT22;34713;50.038;20.000;2022-11-03T02:08:59;13.10;63.60
48898;DHT22;34713;50.038;20.000;2022-11-03T02:11:25;13.07;63.67
48898;DHT22;34713;50.038;20.000;2022-11-03T02:14:14;13.04;63.67
48898;DHT22;34713;50.038;20.000;2022-11-03T02:16:44;13.01;63.71
48898;DHT22;34713;50.038;20.000;2022-11-03T02:19:44;12.98;63.77
48898;DHT22;34713;50.038;20.000;2022-11-03T02:27:53;12.88;63.87
48898;DHT22;34713;50.038;20.000;2022-11-03T02:30:19;12.85;63.93
48898;DHT22;34713;50.038;20.000;2022-11-03T02:35:48;12.77;64.13
48898;DHT22;34713;50.038;20.000;2022-11-03T02:38:15;12.77;64.23
48898;DHT22;34713;50.038;20.000;2022-11-03T02:40:45;12.73;64.28
48898;DHT22;34713;50.038;20.000;2022-11-03T02:43:13;12.70;64.37
48898;DHT22;34713;50.038;20.000;2022-11-03T02:45:41;12.68;64.45
48898;DHT22;34713;50.038;20.000;2022-11-03T02:48:10;12.66;64.51
48898;DHT22;34713;50.038;20.000;2022-11-03T02:50:37;12.66;64.57
48898;DHT22;34713;50.038;20.000;2022-11-03T02:53:03;12.64;64.57
48898;DHT22;34713;50.038;20.000;2022-11-03T02:58:34;12.63;64.72
48898;DHT22;34713;50.038;20.000;2022-11-03T03:01:11;12.62;64.74
48898;DHT22;34713;50.038;20.000;2022-11-03T03:03:46;12.59;64.75
48898;DHT22;34713;50.038;20.000;2022-11-03T03:08:55;12.54;64.82
48898;DHT22;34713;50.038;20.000;2022-11-03T03:11:18;12.53;64.87
48898;DHT22;34713;50.038;20.000;2022-11-03T03:13:49;12.53;64.82
48898;DHT22;34713;50.038;20.000;2022-11-03T03:16:26;12.52;64.90
48898;DHT22;34713;50.038;20.000;2022-11-03T03:19:08;12.49;64.97
48898;DHT22;34713;50.038;20.000;2022-11-03T03:21:38;12.44;65.02
48898;DHT22;34713;50.038;20.000;2022-11-03T03:24:15;12.43;65.00
48898;DHT22;34713;50.038;20.000;2022-11-03T03:26:44;12.43;64.97
48898;DHT22;34713;50.038;20.000;2022-11-03T03:29:25;12.42;64.99
48898;DHT22;34713;50.038;20.000;2022-11-03T03:32:00;12.40;65.06
48898;DHT22;34713;50.038;20.000;2022-11-03T03:34:28;12.37;65.12
48898;DHT22;34713;50.038;20.000;2022-11-03T03:36:57;12.36;65.18
48898;DHT22;34713;50.038;20.000;2022-11-03T03:39:27;12.37;65.27
48898;DHT22;34713;50.038;20.000;2022-11-03T03:41:55;12.36;65.35
48898;DHT22;34713;50.038;20.000;2022-11-03T03:44:23;12.39;65.42
48898;DHT22;34713;50.038;20.000;2022-11-03T03:46:59;12.40;65.43
48898;DHT22;34713;50.038;20.000;2022-11-03T03:49:25;12.40;65.39
48898;DHT22;34713;50.038;20.000;2022-11-03T03:51:51;12.42;65.37
48898;DHT22;34713;50.038;20.000;2022-11-03T03:54:17;12.42;65.29
48898;DHT22;34713;50.038;20.000;2022-11-03T03:56:55;12.40;65.26
48898;DHT22;34713;50.038;20.000;2022-11-03T03:59:20;12.40;65.27
48898;DHT22;34713;50.038;20.000;2022-11-03T04:01:46;12.37;65.26
48898;DHT22;34713;50.038;20.000;2022-11-03T04:04:12;12.35;65.20
48898;DHT22;34713;50.038;20.000;2022-11-03T04:06:37;12.33;65.18
48898;DHT22;34713;50.038;20.000;2022-11-03T04:09:03;12.33;65.18
48898;DHT22;34713;50.038;20.000;2022-11-03T04:11:29;12.28;65.25
48898;DHT22;34713;50.038;20.000;2022-11-03T04:14:13;12.28;65.21
48898;DHT22;34713;50.038;20.000;2022-11-03T04:16:57;12.22;65.26
48898;DHT22;34713;50.038;20.000;2022-11-03T04:19:41;12.16;65.29
48898;DHT22;34713;50.038;20.000;2022-11-03T04:22:30;12.16;65.26
48898;DHT22;34713;50.038;20.000;2022-11-03T04:24:57;12.13;65.23
48898;DHT22;34713;50.038;20.000;2022-11-03T04:27:33;12.11;65.24
48898;DHT22;34713;50.038;20.000;2022-11-03T04:30:18;12.08;65.22
48898;DHT22;34713;50.038;20.000;2022-11-03T04:32:48;12.02;65.20
48898;DHT22;34713;50.038;20.000;2022-11-03T04:35:22;12.04;65.24
48898;DHT22;34713;50.038;20.000;2022-11-03T04:38:01;11.98;65.31
48898;DHT22;34713;50.038;20.000;2022-11-03T04:40:28;11.96;65.38
48898;DHT22;34713;50.038;20.000;2022-11-03T04:42:54;11.94;65.37
48898;DHT22;34713;50.038;20.000;2022-11-03T04:45:28;11.92;65.37
48898;DHT22;34713;50.038;20.000;2022-11-03T04:47:51;11.91;65.39
48898;DHT22;34713;50.038;20.000;2022-11-03T04:50:21;11.85;65.38
48898;DHT22;34713;50.038;20.000;2022-11-03T04:52:50;11.86;65.40
48898;DHT22;34713;50.038;20.000;2022-11-03T04:55:17;11.84;65.40
48898;DHT22;34713;50.038;20.000;2022-11-03T04:57:44;11.78;65.44
48898;DHT22;34713;50.038;20.000;2022-11-03T05:00:17;11.75;65.48
48898;DHT22;34713;50.038;20.000;2022-11-03T05:02:49;11.73;65.44
48898;DHT22;34713;50.038;20.000;2022-11-03T05:05:20;11.70;65.50
48898;DHT22;34713;50.038;20.000;2022-11-03T05:07:51;11.65;65.53
48898;DHT22;34713;50.038;20.000;2022-11-03T05:10:27;11.64;65.57
48898;DHT22;34713;50.038;20.000;2022-11-03T05:12:49;11.63;65.61
48898;DHT22;34713;50.038;20.000;2022-11-03T05:15:39;11.58;65.66
48898;DHT22;34713;50.038;20.000;2022-11-03T05:20:57;11.51;65.75
48898;DHT22;34713;50.038;20.000;2022-11-03T05:23:24;11.50;65.82
48898;DHT22;34713;50.038;20.000;2022-11-03T05:25:53;11.47;65.87
48898;DHT22;34713;50.038;20.000;2022-11-03T05:28:30;11.44;65.89
48898;DHT22;34713;50.038;20.000;2022-11-03T05:30:57;11.43;65.95
48898;DHT22;34713;50.038;20.000;2022-11-03T05:33:30;11.42;65.97
48898;DHT22;34713;50.038;20.000;2022-11-03T05:36:11;11.39;65.96
48898;DHT22;34713;50.038;20.000;2022-11-03T05:38:32;11.39;65.91
48898;DHT22;34713;50.038;20.000;2022-11-03T05:40:59;11.37;65.96
48898;DHT22;34713;50.038;20.000;2022-11-03T05:43:27;11.36;65.93
48898;DHT22;34713;50.038;20.000;2022-11-03T05:45:57;11.39;65.96
48898;DHT22;34713;50.038;20.000;2022-11-03T05:48:37;11.37;65.92
48898;DHT22;34713;50.038;20.000;2022-11-03T05:51:27;11.35;65.81
48898;DHT22;34713;50.038;20.000;2022-11-03T05:53:54;11.33;65.71
48898;DHT22;34713;50.038;20.000;2022-11-03T05:56:22;11.35;65.68
48898;DHT22;34713;50.038;20.000;2022-11-03T05:58:50;11.33;65.72
48898;DHT22;34713;50.038;20.000;2022-11-03T06:01:29;11.39;65.68
48898;DHT22;34713;50.038;20.000;2022-11-03T06:04:03;11.39;65.63
48898;DHT22;34713;50.038;20.000;2022-11-03T06:06:34;11.43;65.67
48898;DHT22;34713;50.038;20.000;2022-11-03T06:09:14;11.47;65.70
48898;DHT22;34713;50.038;20.000;2022-11-03T06:11:41;11.53;65.63
48898;DHT22;34713;50.038;20.000;2022-11-03T06:14:23;11.56;65.52
48898;DHT22;34713;50.038;20.000;2022-11-03T06:19:30;11.60;65.52
48898;DHT22;34713;50.038;20.000;2022-11-03T06:22:01;11.61;65.57
48898;DHT22;34713;50.038;20.000;2022-11-03T06:24:29;11.65;65.63
48898;DHT22;34713;50.038;20.000;2022-11-03T06:26:56;11.67;65.63
48898;DHT22;34713;50.038;20.000;2022-11-03T06:29:23;11.75;65.60
48898;DHT22;34713;50.038;20.000;2022-11-03T06:31:52;11.81;65.60
48898;DHT22;34713;50.038;20.000;2022-11-03T06:37:26;11.88;65.64
48898;DHT22;34713;50.038;20.000;2022-11-03T06:40:00;11.95;65.69
48898;DHT22;34713;50.038;20.000;2022-11-03T06:42:30;12.02;65.70
48898;DHT22;34713;50.038;20.000;2022-11-03T06:44:57;12.04;65.66
48898;DHT22;34713;50.038;20.000;2022-11-03T06:47:26;12.11;65.73
48898;DHT22;34713;50.038;20.000;2022-11-03T06:49:56;12.12;65.74
48898;DHT22;34713;50.038;20.000;2022-11-03T06:52:32;12.16;65.77
48898;DHT22;34713;50.038;20.000;2022-11-03T06:57:42;12.22;65.82
48898;DHT22;34713;50.038;20.000;2022-11-03T07:00:22;12.29;65.80
48898;DHT22;34713;50.038;20.000;2022-11-03T07:03:23;12.36;65.84
48898;DHT22;34713;50.038;20.000;2022-11-03T07:08:48;12.52;65.71
48898;DHT22;34713;50.038;20.000;2022-11-03T07:11:21;12.63;65.64
48898;DHT22;34713;50.038;20.000;2022-11-03T07:13:57;12.70;65.55
48898;DHT22;34713;50.038;20.000;2022-11-03T07:16:47;12.81;65.51
48898;DHT22;34713;50.038;20.000;2022-11-03T07:19:31;12.90;65.38
48898;DHT22;34713;50.038;20.000;2022-11-03T07:22:20;13.01;65.24
48898;DHT22;34713;50.038;20.000;2022-11-03T07:24:49;13.14;65.20
48898;DHT22;34713;50.038;20.000;2022-11-03T07:27:24;13.21;65.08
48898;DHT22;34713;50.038;20.000;2022-11-03T07:29:56;13.28;64.88
48898;DHT22;34713;50.038;20.000;2022-11-03T07:32:30;13.39;64.75
48898;DHT22;34713;50.038;20.000;2022-11-03T07:37:51;13.59;64.45
48898;DHT22;34713;50.038;20.000;2022-11-03T07:40:24;13.73;64.38
48898;DHT22;34713;50.038;20.000;2022-11-03T07:42:51;13.83;64.26
48898;DHT22;34713;50.038;20.000;2022-11-03T07:45:38;13.94;63.99
48898;DHT22;34713;50.038;20.000;2022-11-03T07:48:36;13.98;63.91
48898;DHT22;34713;50.038;20.000;2022-11-03T07:55:10;14.15;63.69
48898;DHT22;34713;50.038;20.000;2022-11-03T07:57:14;14.25;63.66
48898;DHT22;34713;50.038;20.000;2022-11-03T07:59:42;14.35;63.38
48898;DHT22;34713;50.038;20.000;2022-11-03T08:02:28;14.43;63.14
48898;DHT22;34713;50.038;20.000;2022-11-03T08:04:52;14.52;62.93
48898;DHT22;34713;50.038;20.000;2022-11-03T08:07:18;14.58;62.69
48898;DHT22;34713;50.038;20.000;2022-11-03T08:09:43;14.68;62.67
48898;DHT22;34713;50.038;20.000;2022-11-03T08:12:09;14.77;62.78
48898;DHT22;34713;50.038;20.000;2022-11-03T08:14:35;14.84;62.64
48898;DHT22;34713;50.038;20.000;2022-11-03T08:17:03;14.97;62.31
48898;DHT22;34713;50.038;20.000;2022-11-03T08:19:28;15.07;62.06
48898;DHT22;34713;50.038;20.000;2022-11-03T08:21:55;15.14;61.97
48898;DHT22;34713;50.038;20.000;2022-11-03T08:24:22;15.25;61.96
48898;DHT22;34713;50.038;20.000;2022-11-03T08:26:47;15.35;61.87
48898;DHT22;34713;50.038;20.000;2022-11-03T08:29:13;15.46;61.36
48898;DHT22;34713;50.038;20.000;2022-11-03T08:31:41;15.52;61.05
48898;DHT22;34713;50.038;20.000;2022-11-03T08:34:07;15.58;60.76
48898;DHT22;34713;50.038;20.000;2022-11-03T08:36:32;15.59;60.41
48898;DHT22;34713;50.038;20.000;2022-11-03T08:38:58;15.62;60.21
48898;DHT22;34713;50.038;20.000;2022-11-03T08:41:24;15.64;59.96
48898;DHT22;34713;50.038;20.000;2022-11-03T08:43:50;15.58;59.56
48898;DHT22;34713;50.038;20.000;2022-11-03T08:46:16;15.34;59.95
48898;DHT22;34713;50.038;20.000;2022-11-03T08:48:42;15.14;60.49
48898;DHT22;34713;50.038;20.000;2022-11-03T08:51:08;14.98;61.36
48898;DHT22;34713;50.038;20.000;2022-11-03T08:53:34;14.89;61.38
48898;DHT22;34713;50.038;20.000;2022-11-03T08:56:00;14.82;61.88
48898;DHT22;34713;50.038;20.000;2022-11-03T08:58:26;14.70;61.52
48898;DHT22;34713;50.038;20.000;2022-11-03T09:00:52;14.55;62.08
48898;DHT22;34713;50.038;20.000;2022-11-03T09:03:18;14.48;62.23
48898;DHT22;34713;50.038;20.000;2022-11-03T09:05:44;14.40;62.35
48898;DHT22;34713;50.038;20.000;2022-11-03T09:08:10;14.31;62.66
48898;DHT22;34713;50.038;20.000;2022-11-03T09:10:36;14.36;62.72
48898;DHT22;34713;50.038;20.000;2022-11-03T09:13:01;14.58;62.48
48898;DHT22;34713;50.038;20.000;2022-11-03T09:15:27;14.82;62.08
48898;DHT22;34713;50.038;20.000;2022-11-03T09:17:53;14.98;61.66
48898;DHT22;34713;50.038;20.000;2022-11-03T09:20:19;15.14;61.29
48898;DHT22;34713;50.038;20.000;2022-11-03T09:22:45;15.31;60.90
48898;DHT22;34713;50.038;20.000;2022-11-03T09:25:11;15.45;60.20
48898;DHT22;34713;50.038;20.000;2022-11-03T09:27:37;15.55;59.96
48898;DHT22;34713;50.038;20.000;2022-11-03T09:30:04;15.61;59.37
48898;DHT22;34713;50.038;20.000;2022-11-03T09:32:31;15.54;59.19
48898;DHT22;34713;50.038;20.000;2022-11-03T09:34:57;15.34;59.77
48898;DHT22;34713;50.038;20.000;2022-11-03T09:37:23;15.13;60.05
48898;DHT22;34713;50.038;20.000;2022-11-03T09:39:49;14.97;60.50
48898;DHT22;34713;50.038;20.000;2022-11-03T09:42:15;14.86;60.43
48898;DHT22;34713;50.038;20.000;2022-11-03T09:44:42;14.70;61.07
48898;DHT22;34713;50.038;20.000;2022-11-03T09:47:11;14.63;61.20
48898;DHT22;34713;50.038;20.000;2022-11-03T09:49:38;14.53;61.32
48898;DHT22;34713;50.038;20.000;2022-11-03T09:52:04;14.49;61.80
48898;DHT22;34713;50.038;20.000;2022-11-03T09:54:30;14.45;62.12
48898;DHT22;34713;50.038;20.000;2022-11-03T09:57:10;14.40;61.94
48898;DHT22;34713;50.038;20.000;2022-11-03T09:59:33;14.35;61.92
48898;DHT22;34713;50.038;20.000;2022-11-03T10:01:59;14.31;62.30
48898;DHT22;34713;50.038;20.000;2022-11-03T10:04:26;14.24;62.35
48898;DHT22;34713;50.038;20.000;2022-11-03T10:06:56;14.27;62.48
48898;DHT22;34713;50.038;20.000;2022-11-03T10:09:23;14.38;62.36
48898;DHT22;34713;50.038;20.000;2022-11-03T10:11:52;14.68;61.48
48898;DHT22;34713;50.038;20.000;2022-11-03T10:14:19;14.94;60.75
48898;DHT22;34713;50.038;20.000;2022-11-03T10:16:56;15.14;59.75
48898;DHT22;34713;50.038;20.000;2022-11-03T10:19:24;15.30;59.07
48898;DHT22;34713;50.038;20.000;2022-11-03T10:21:51;15.33;57.93
48898;DHT22;34713;50.038;20.000;2022-11-03T10:24:17;15.17;57.74
48898;DHT22;34713;50.038;20.000;2022-11-03T10:26:52;14.98;58.45
48898;DHT22;34713;50.038;20.000;2022-11-03T10:29:22;14.79;58.59
48898;DHT22;34713;50.038;20.000;2022-11-03T10:31:52;14.68;59.06
48898;DHT22;34713;50.038;20.000;2022-11-03T10:34:38;14.58;58.68
48898;DHT22;34713;50.038;20.000;2022-11-03T10:37:24;14.49;59.04
48898;DHT22;34713;50.038;20.000;2022-11-03T10:39:53;14.39;59.09
48898;DHT22;34713;50.038;20.000;2022-11-03T10:42:26;14.39;59.40
48898;DHT22;34713;50.038;20.000;2022-11-03T10:45:17;14.36;59.43
48898;DHT22;34713;50.038;20.000;2022-11-03T10:47:43;14.36;59.37
48898;DHT22;34713;50.038;20.000;2022-11-03T10:50:23;14.33;59.37
48898;DHT22;34713;50.038;20.000;2022-11-03T10:52:50;14.36;59.23
48898;DHT22;34713;50.038;20.000;2022-11-03T10:55:18;14.32;59.25
48898;DHT22;34713;50.038;20.000;2022-11-03T10:57:45;14.35;59.29
48898;DHT22;34713;50.038;20.000;2022-11-03T11:00:13;14.35;58.87
48898;DHT22;34713;50.038;20.000;2022-11-03T11:02:42;14.35;58.70
48898;DHT22;34713;50.038;20.000;2022-11-03T11:05:19;14.36;58.21
48898;DHT22;34713;50.038;20.000;2022-11-03T11:07:46;14.35;58.12
48898;DHT22;34713;50.038;20.000;2022-11-03T11:10:15;14.33;58.03
48898;DHT22;34713;50.038;20.000;2022-11-03T11:16:00;14.33;57.52
48898;DHT22;34713;50.038;20.000;2022-11-03T11:31:44;14.29;57.42
48898;DHT22;34713;50.038;20.000;2022-11-03T11:42:16;14.38;57.11
48898;DHT22;34713;50.038;20.000;2022-11-03T11:45:02;14.39;57.02
48898;DHT22;34713;50.038;20.000;2022-11-03T11:47:47;14.40;56.99
48898;DHT22;34713;50.038;20.000;2022-11-03T11:50:20;14.42;57.00
48898;DHT22;34713;50.038;20.000;2022-11-03T11:58:16;14.47;56.68
48898;DHT22;34713;50.038;20.000;2022-11-03T12:00:54;14.47;56.72
48898;DHT22;34713;50.038;20.000;2022-11-03T12:03:37;14.48;56.73
48898;DHT22;34713;50.038;20.000;2022-11-03T12:06:00;14.51;56.39
48898;DHT22;34713;50.038;20.000;2022-11-03T12:08:29;14.51;56.63
48898;DHT22;34713;50.038;20.000;2022-11-03T12:10:59;14.55;56.39
48898;DHT22;34713;50.038;20.000;2022-11-03T12:13:46;14.55;56.55
48898;DHT22;34713;50.038;20.000;2022-11-03T12:16:35;14.56;56.60
48898;DHT22;34713;50.038;20.000;2022-11-03T12:19:43;14.56;56.55
48898;DHT22;34713;50.038;20.000;2022-11-03T12:25:02;14.59;56.52
48898;DHT22;34713;50.038;20.000;2022-11-03T12:30:10;14.62;56.68
48898;DHT22;34713;50.038;20.000;2022-11-03T12:32:33;14.63;56.49
48898;DHT22;34713;50.038;20.000;2022-11-03T12:34:59;14.68;56.25
48898;DHT22;34713;50.038;20.000;2022-11-03T12:37:25;14.68;56.30
48898;DHT22;34713;50.038;20.000;2022-11-03T12:39:50;14.69;56.16
48898;DHT22;34713;50.038;20.000;2022-11-03T12:42:16;14.75;56.17
48898;DHT22;34713;50.038;20.000;2022-11-03T12:44:44;14.75;56.08
48898;DHT22;34713;50.038;20.000;2022-11-03T12:47:09;14.75;55.98
48898;DHT22;34713;50.038;20.000;2022-11-03T12:49:35;14.79;55.99
48898;DHT22;34713;50.038;20.000;2022-11-03T12:52:01;14.82;56.13
48898;DHT22;34713;50.038;20.000;2022-11-03T12:54:29;14.82;55.88
48898;DHT22;34713;50.038;20.000;2022-11-03T12:56:54;14.84;55.95
48898;DHT22;34713;50.038;20.000;2022-11-03T12:59:20;14.83;56.05
48898;DHT22;34713;50.038;20.000;2022-11-03T13:01:46;14.87;56.01
48898;DHT22;34713;50.038;20.000;2022-11-03T13:04:12;14.87;55.98
48898;DHT22;34713;50.038;20.000;2022-11-03T13:06:38;14.89;56.01
48898;DHT22;34713;50.038;20.000;2022-11-03T13:09:03;14.89;56.00
48898;DHT22;34713;50.038;20.000;2022-11-03T13:11:29;14.91;55.43
48898;DHT22;34713;50.038;20.000;2022-11-03T13:14:13;14.93;55.52
48898;DHT22;34713;50.038;20.000;2022-11-03T13:16:39;14.93;55.63
48898;DHT22;34713;50.038;20.000;2022-11-03T13:19:05;14.94;55.57
48898;DHT22;34713;50.038;20.000;2022-11-03T13:21:30;14.97;55.36
48898;DHT22;34713;50.038;20.000;2022-11-03T13:23:56;14.98;55.17
48898;DHT22;34713;50.038;20.000;2022-11-03T13:26:22;15.00;55.25
48898;DHT22;34713;50.038;20.000;2022-11-03T13:28:48;15.03;54.97
48898;DHT22;34713;50.038;20.000;2022-11-03T13:31:13;15.01;54.86
48898;DHT22;34713;50.038;20.000;2022-11-03T13:33:39;14.98;54.97
48898;DHT22;34713;50.038;20.000;2022-11-03T13:36:06;15.03;54.89
48898;DHT22;34713;50.038;20.000;2022-11-03T13:38:32;15.01;55.08
48898;DHT22;34713;50.038;20.000;2022-11-03T13:40:57;15.00;55.14
48898;DHT22;34713;50.038;20.000;2022-11-03T13:43:23;15.03;55.15
48898;DHT22;34713;50.038;20.000;2022-11-03T13:45:49;15.01;55.15
48898;DHT22;34713;50.038;20.000;2022-11-03T13:48:15;15.00;55.14
48898;DHT22;34713;50.038;20.000;2022-11-03T13:50:44;15.03;55.10
48898;DHT22;34713;50.038;20.000;2022-11-03T13:53:10;15.01;55.05
48898;DHT22;34713;50.038;20.000;2022-11-03T13:55:36;15.00;54.93
48898;DHT22;34713;50.038;20.000;2022-11-03T13:58:02;14.98;54.87
48898;DHT22;34713;50.038;20.000;2022-11-03T14:00:28;14.98;54.90
48898;DHT22;34713;50.038;20.000;2022-11-03T14:02:54;14.97;54.97
48898;DHT22;34713;50.038;20.000;2022-11-03T14:05:19;14.96;55.06
48898;DHT22;34713;50.038;20.000;2022-11-03T14:07:45;14.97;55.08
48898;DHT22;34713;50.038;20.000;2022-11-03T14:10:11;14.94;55.16
48898;DHT22;34713;50.038;20.000;2022-11-03T14:12:37;14.93;55.16
48898;DHT22;34713;50.038;20.000;2022-11-03T14:15:07;14.93;55.17
48898;DHT22;34713;50.038;20.000;2022-11-03T14:17:34;14.91;55.16
48898;DHT22;34713;50.038;20.000;2022-11-03T14:20:01;14.90;55.09
48898;DHT22;34713;50.038;20.000;2022-11-03T14:22:28;14.83;54.96
48898;DHT22;34713;50.038;20.000;2022-11-03T14:24:55;14.83;55.00
48898;DHT22;34713;50.038;20.000;2022-11-03T14:27:23;14.82;55.05
48898;DHT22;34713;50.038;20.000;2022-11-03T14:29:48;14.79;55.12
48898;DHT22;34713;50.038;20.000;2022-11-03T14:32:16;14.76;55.22
48898;DHT22;34713;50.038;20.000;2022-11-03T14:34:42;14.70;55.30
48898;DHT22;34713;50.038;20.000;2022-11-03T14:37:09;14.65;55.38
48898;DHT22;34713;50.038;20.000;2022-11-03T14:39:36;14.62;55.42
48898;DHT22;34713;50.038;20.000;2022-11-03T14:42:09;14.60;55.43
48898;DHT22;34713;50.038;20.000;2022-11-03T14:44:38;14.51;55.26
48898;DHT22;34713;50.038;20.000;2022-11-03T14:47:07;14.47;55.59
48898;DHT22;34713;50.038;20.000;2022-11-03T14:49:33;14.38;55.67
48898;DHT22;34713;50.038;20.000;2022-11-03T14:52:00;14.32;55.66
48898;DHT22;34713;50.038;20.000;2022-11-03T14:54:28;14.25;55.68
48898;DHT22;34713;50.038;20.000;2022-11-03T14:56:54;14.17;55.78
48898;DHT22;34713;50.038;20.000;2022-11-03T14:59:20;14.14;55.93
48898;DHT22;34713;50.038;20.000;2022-11-03T15:01:48;14.02;55.97
48898;DHT22;34713;50.038;20.000;2022-11-03T15:04:16;14.01;56.08
48898;DHT22;34713;50.038;20.000;2022-11-03T15:06:42;13.93;56.23
48898;DHT22;34713;50.038;20.000;2022-11-03T15:09:10;13.89;56.44
48898;DHT22;34713;50.038;20.000;2022-11-03T15:11:36;13.83;56.58
48898;DHT22;34713;50.038;20.000;2022-11-03T15:14:02;13.74;56.76
48898;DHT22;34713;50.038;20.000;2022-11-03T15:16:28;13.72;57.00
48898;DHT22;34713;50.038;20.000;2022-11-03T15:18:54;13.69;57.11
48898;DHT22;34713;50.038;20.000;2022-11-03T15:21:20;13.59;57.24
48898;DHT22;34713;50.038;20.000;2022-11-03T15:23:46;13.54;57.36
48898;DHT22;34713;50.038;20.000;2022-11-03T15:26:11;13.47;57.48
48898;DHT22;34713;50.038;20.000;2022-11-03T15:28:38;13.43;57.69
48898;DHT22;34713;50.038;20.000;2022-11-03T15:31:04;13.36;57.86
48898;DHT22;34713;50.038;20.000;2022-11-03T15:33:30;13.32;58.00
48898;DHT22;34713;50.038;20.000;2022-11-03T15:35:56;13.25;58.13
48898;DHT22;34713;50.038;20.000;2022-11-03T15:38:21;13.21;58.26
48898;DHT22;34713;50.038;20.000;2022-11-03T15:40:47;13.15;58.38
48898;DHT22;34713;50.038;20.000;2022-11-03T15:43:13;13.12;58.50
48898;DHT22;34713;50.038;20.000;2022-11-03T15:45:39;13.05;58.61
48898;DHT22;34713;50.038;20.000;2022-11-03T15:48:05;13.00;58.71
48898;DHT22;34713;50.038;20.000;2022-11-03T15:50:32;12.97;58.82
48898;DHT22;34713;50.038;20.000;2022-11-03T15:52:58;12.92;58.94
48898;DHT22;34713;50.038;20.000;2022-11-03T15:55:24;12.88;59.04
48898;DHT22;34713;50.038;20.000;2022-11-03T15:57:50;12.81;59.14
48898;DHT22;34713;50.038;20.000;2022-11-03T16:00:17;12.78;59.25
48898;DHT22;34713;50.038;20.000;2022-11-03T16:02:45;12.71;59.40
48898;DHT22;34713;50.038;20.000;2022-11-03T16:05:12;12.68;59.53
48898;DHT22;34713;50.038;20.000;2022-11-03T16:07:38;12.66;59.62
48898;DHT22;34713;50.038;20.000;2022-11-03T16:10:05;12.60;59.71
48898;DHT22;34713;50.038;20.000;2022-11-03T16:12:31;12.57;59.86
48898;DHT22;34713;50.038;20.000;2022-11-03T16:14:57;12.52;59.90
48898;DHT22;34713;50.038;20.000;2022-11-03T16:17:23;12.46;59.91
48898;DHT22;34713;50.038;20.000;2022-11-03T16:19:49;12.42;60.02
48898;DHT22;34713;50.038;20.000;2022-11-03T16:22:15;12.37;60.13
48898;DHT22;34713;50.038;20.000;2022-11-03T16:24:41;12.32;60.22
48898;DHT22;34713;50.038;20.000;2022-11-03T16:27:09;12.26;60.20
48898;DHT22;34713;50.038;20.000;2022-11-03T16:29:37;12.22;60.35
48898;DHT22;34713;50.038;20.000;2022-11-03T16:32:03;12.16;60.44
48898;DHT22;34713;50.038;20.000;2022-11-03T16:34:29;12.12;60.49
48898;DHT22;34713;50.038;20.000;2022-11-03T16:36:55;12.06;60.60
48898;DHT22;34713;50.038;20.000;2022-11-03T16:39:21;12.02;60.73
48898;DHT22;34713;50.038;20.000;2022-11-03T16:41:47;11.98;60.80
48898;DHT22;34713;50.038;20.000;2022-11-03T16:44:12;11.96;60.90